📊 Raw Sensor Data
Showing records 41401 to 41425 of 84,982 total
| ID | Distance (ft) | Battery V | Battery A | Int Temp (°F) | Int Humid (%) | Ext Temp (°F) | Solar V | RSSI | SNR | Time Stamp |
|---|---|---|---|---|---|---|---|---|---|---|
| 43594 | 15.7 | 4.00 | 0 | 97 | 52 | 87 | 5.10 | -68 | 8 | 06/15/2025 06:45 PM |
| 43593 | 15.7 | 4.00 | 0 | 100 | 51 | 91 | 5.10 | -67 | 8 | 06/15/2025 06:30 PM |
| 43592 | 15.7 | 4.00 | 0 | 102 | 50 | 92 | 5.10 | -68 | 8 | 06/15/2025 06:15 PM |
| 43591 | 15.7 | 4.00 | 0 | 103 | 50 | 93 | 5.10 | -68 | 7 | 06/15/2025 06:00 PM |
| 43590 | 15.7 | 4.00 | 0 | 103 | 50 | 93 | 5.10 | -68 | 7 | 06/15/2025 05:45 PM |
| 43589 | 15.7 | 4.00 | 0 | 104 | 49 | 94 | 5.10 | -67 | 8 | 06/15/2025 05:30 PM |
| 43588 | 15.7 | 4.00 | 0 | 107 | 47 | 100 | 5.10 | -68 | 8 | 06/15/2025 05:15 PM |
| 43587 | 15.8 | 4.14 | 0 | 107 | 46 | 98 | 5.10 | -69 | 8 | 06/15/2025 05:00 PM |
| 43586 | 15.8 | 4.00 | 0 | 107 | 45 | 97 | 5.10 | -68 | 8 | 06/15/2025 04:45 PM |
| 43585 | 15.7 | 4.00 | 0 | 106 | 45 | 98 | 5.10 | -69 | 8 | 06/15/2025 04:30 PM |
| 43584 | 15.7 | 4.14 | 0 | 105 | 45 | 99 | 5.10 | -69 | 7 | 06/15/2025 04:15 PM |
| 43583 | 15.7 | 4.00 | 0 | 104 | 44 | 97 | 5.10 | -68 | 8 | 06/15/2025 04:00 PM |
| 43582 | 15.7 | 4.00 | 0 | 104 | 44 | 96 | 5.10 | -71 | 8 | 06/15/2025 03:45 PM |
| 43581 | 15.7 | 4.00 | 0 | 103 | 43 | 92 | 5.10 | -69 | 8 | 06/15/2025 03:30 PM |
| 43580 | 15.7 | 4.00 | 0 | 103 | 42 | 97 | 5.10 | -67 | 8 | 06/15/2025 03:15 PM |
| 43579 | 15.7 | 4.11 | 0 | 101 | 42 | 90 | 5.10 | -68 | 8 | 06/15/2025 03:00 PM |
| 43578 | 15.7 | 4.00 | 0 | 101 | 41 | 92 | 5.10 | -68 | 8 | 06/15/2025 02:45 PM |
| 43577 | 15.7 | 4.03 | 0 | 97 | 41 | 86 | 5.10 | -69 | 8 | 06/15/2025 02:15 PM |
| 43576 | 15.7 | 4.00 | 0 | 97 | 41 | 91 | 5.10 | -68 | 7 | 06/15/2025 02:00 PM |
| 43575 | 15.7 | 4.00 | 0 | 95 | 41 | 86 | 5.10 | -69 | 8 | 06/15/2025 01:45 PM |
| 43574 | 15.7 | 4.00 | 0 | 94 | 40 | 90 | 5.20 | -68 | 8 | 06/15/2025 01:30 PM |
| 43573 | 15.7 | 4.00 | 0 | 91 | 41 | 87 | 5.10 | -67 | 7 | 06/15/2025 01:15 PM |
| 43572 | 15.7 | 4.13 | 0 | 89 | 41 | 82 | 5.10 | -69 | 7 | 06/15/2025 01:00 PM |
| 43571 | 15.7 | 4.00 | 0 | 86 | 42 | 82 | 5.10 | -68 | 8 | 06/15/2025 12:45 PM |
| 43570 | 15.7 | 4.00 | 0 | 84 | 43 | 80 | 5.10 | -70 | 7 | 06/15/2025 12:30 PM |